sensor_id;sensor_type;location;lat;lon;timestamp;temperature;humidity
54126;DHT22;40360;52.992;6.796;2024-02-23T00:01:04;5.00;99.90
54126;DHT22;40360;52.992;6.796;2024-02-23T00:03:30;5.00;99.90
54126;DHT22;40360;52.992;6.796;2024-02-23T00:05:58;5.00;99.90
54126;DHT22;40360;52.992;6.796;2024-02-23T00:08:24;5.00;99.90
54126;DHT22;40360;52.992;6.796;2024-02-23T00:10:49;5.00;99.90
54126;DHT22;40360;52.992;6.796;2024-02-23T00:13:15;5.00;99.90
54126;DHT22;40360;52.992;6.796;2024-02-23T00:15:41;4.90;99.90
54126;DHT22;40360;52.992;6.796;2024-02-23T00:18:07;5.00;99.90
54126;DHT22;40360;52.992;6.796;2024-02-23T00:20:33;5.00;99.90
54126;DHT22;40360;52.992;6.796;2024-02-23T00:22:59;5.00;99.90
54126;DHT22;40360;52.992;6.796;2024-02-23T00:25:25;5.00;99.90
54126;DHT22;40360;52.992;6.796;2024-02-23T00:27:51;5.00;99.90
54126;DHT22;40360;52.992;6.796;2024-02-23T00:30:16;5.00;99.90
54126;DHT22;40360;52.992;6.796;2024-02-23T00:32:42;5.00;99.90
54126;DHT22;40360;52.992;6.796;2024-02-23T00:35:08;5.10;99.90
54126;DHT22;40360;52.992;6.796;2024-02-23T00:37:34;5.10;99.90
54126;DHT22;40360;52.992;6.796;2024-02-23T00:40:07;5.00;99.90
54126;DHT22;40360;52.992;6.796;2024-02-23T00:42:34;5.00;99.90
54126;DHT22;40360;52.992;6.796;2024-02-23T00:45:00;4.90;99.90
54126;DHT22;40360;52.992;6.796;2024-02-23T00:47:26;4.90;99.90
54126;DHT22;40360;52.992;6.796;2024-02-23T00:49:53;4.90;99.90
54126;DHT22;40360;52.992;6.796;2024-02-23T00:52:19;4.80;99.90
54126;DHT22;40360;52.992;6.796;2024-02-23T00:54:44;4.80;99.90
54126;DHT22;40360;52.992;6.796;2024-02-23T00:57:10;4.80;99.90
54126;DHT22;40360;52.992;6.796;2024-02-23T00:59:36;4.70;99.90
54126;DHT22;40360;52.992;6.796;2024-02-23T01:02:02;4.60;99.90
54126;DHT22;40360;52.992;6.796;2024-02-23T01:04:28;4.40;99.90
54126;DHT22;40360;52.992;6.796;2024-02-23T01:06:53;4.30;99.90
54126;DHT22;40360;52.992;6.796;2024-02-23T01:09:19;4.10;99.90
54126;DHT22;40360;52.992;6.796;2024-02-23T01:11:49;3.90;99.90
54126;DHT22;40360;52.992;6.796;2024-02-23T01:14:15;3.60;99.90
54126;DHT22;40360;52.992;6.796;2024-02-23T01:16:40;3.60;99.90
54126;DHT22;40360;52.992;6.796;2024-02-23T01:19:06;3.70;99.90
54126;DHT22;40360;52.992;6.796;2024-02-23T01:21:32;3.70;99.90
54126;DHT22;40360;52.992;6.796;2024-02-23T01:23:58;3.80;99.90
54126;DHT22;40360;52.992;6.796;2024-02-23T01:26:26;3.80;99.90
54126;DHT22;40360;52.992;6.796;2024-02-23T01:28:53;3.80;99.90
54126;DHT22;40360;52.992;6.796;2024-02-23T01:31:19;3.80;99.90
54126;DHT22;40360;52.992;6.796;2024-02-23T01:33:44;3.70;99.90
54126;DHT22;40360;52.992;6.796;2024-02-23T01:36:10;3.80;99.90
54126;DHT22;40360;52.992;6.796;2024-02-23T01:38:36;3.70;99.90
54126;DHT22;40360;52.992;6.796;2024-02-23T01:41:02;4.00;99.90
54126;DHT22;40360;52.992;6.796;2024-02-23T01:43:28;3.80;99.90
54126;DHT22;40360;52.992;6.796;2024-02-23T01:45:54;4.00;99.90
54126;DHT22;40360;52.992;6.796;2024-02-23T01:48:20;3.90;99.90
54126;DHT22;40360;52.992;6.796;2024-02-23T01:50:47;3.90;99.90
54126;DHT22;40360;52.992;6.796;2024-02-23T01:53:13;4.00;99.90
54126;DHT22;40360;52.992;6.796;2024-02-23T01:55:42;4.00;99.90
54126;DHT22;40360;52.992;6.796;2024-02-23T01:58:08;4.00;99.90
54126;DHT22;40360;52.992;6.796;2024-02-23T02:00:35;4.10;99.90
54126;DHT22;40360;52.992;6.796;2024-02-23T02:03:04;4.20;99.90
54126;DHT22;40360;52.992;6.796;2024-02-23T02:05:30;4.30;99.90
54126;DHT22;40360;52.992;6.796;2024-02-23T02:07:56;4.30;99.90
54126;DHT22;40360;52.992;6.796;2024-02-23T02:10:25;4.30;99.90
54126;DHT22;40360;52.992;6.796;2024-02-23T02:12:52;4.40;99.90
54126;DHT22;40360;52.992;6.796;2024-02-23T02:15:17;4.40;99.90
54126;DHT22;40360;52.992;6.796;2024-02-23T02:17:44;4.50;99.90
54126;DHT22;40360;52.992;6.796;2024-02-23T02:20:12;4.50;99.90
54126;DHT22;40360;52.992;6.796;2024-02-23T02:22:39;4.50;99.90
54126;DHT22;40360;52.992;6.796;2024-02-23T02:25:05;4.50;99.90
54126;DHT22;40360;52.992;6.796;2024-02-23T02:27:32;4.60;99.90
54126;DHT22;40360;52.992;6.796;2024-02-23T02:29:58;4.60;99.90
54126;DHT22;40360;52.992;6.796;2024-02-23T02:32:23;4.60;99.90
54126;DHT22;40360;52.992;6.796;2024-02-23T02:34:49;4.70;99.90
54126;DHT22;40360;52.992;6.796;2024-02-23T02:37:15;4.70;99.90
54126;DHT22;40360;52.992;6.796;2024-02-23T02:39:41;4.70;99.90
54126;DHT22;40360;52.992;6.796;2024-02-23T02:42:07;4.70;99.90
54126;DHT22;40360;52.992;6.796;2024-02-23T02:44:33;4.70;99.90
54126;DHT22;40360;52.992;6.796;2024-02-23T02:46:59;4.70;99.90
54126;DHT22;40360;52.992;6.796;2024-02-23T02:49:25;4.70;99.90
54126;DHT22;40360;52.992;6.796;2024-02-23T02:51:50;4.70;99.90
54126;DHT22;40360;52.992;6.796;2024-02-23T02:54:17;4.80;99.90
54126;DHT22;40360;52.992;6.796;2024-02-23T02:56:44;4.80;99.90
54126;DHT22;40360;52.992;6.796;2024-02-23T02:59:11;4.90;99.90
54126;DHT22;40360;52.992;6.796;2024-02-23T03:01:37;4.90;99.90
54126;DHT22;40360;52.992;6.796;2024-02-23T03:04:03;4.90;99.90
54126;DHT22;40360;52.992;6.796;2024-02-23T03:06:29;4.90;99.90
54126;DHT22;40360;52.992;6.796;2024-02-23T03:08:58;5.10;99.90
54126;DHT22;40360;52.992;6.796;2024-02-23T03:11:23;5.10;99.90
54126;DHT22;40360;52.992;6.796;2024-02-23T03:13:49;5.10;99.90
54126;DHT22;40360;52.992;6.796;2024-02-23T03:16:18;5.10;99.90
54126;DHT22;40360;52.992;6.796;2024-02-23T03:18:44;5.10;99.90
54126;DHT22;40360;52.992;6.796;2024-02-23T03:21:11;5.00;99.90
54126;DHT22;40360;52.992;6.796;2024-02-23T03:23:37;5.00;99.90
54126;DHT22;40360;52.992;6.796;2024-02-23T03:26:03;5.00;99.90
54126;DHT22;40360;52.992;6.796;2024-02-23T03:28:29;5.00;99.90
54126;DHT22;40360;52.992;6.796;2024-02-23T03:30:54;5.00;99.90
54126;DHT22;40360;52.992;6.796;2024-02-23T03:33:20;5.00;99.90
54126;DHT22;40360;52.992;6.796;2024-02-23T03:35:46;5.00;99.90
54126;DHT22;40360;52.992;6.796;2024-02-23T03:38:11;5.00;99.90
54126;DHT22;40360;52.992;6.796;2024-02-23T03:40:37;5.00;99.90
54126;DHT22;40360;52.992;6.796;2024-02-23T03:43:03;4.90;99.90
54126;DHT22;40360;52.992;6.796;2024-02-23T03:45:29;4.90;99.90
54126;DHT22;40360;52.992;6.796;2024-02-23T03:47:54;4.90;99.90
54126;DHT22;40360;52.992;6.796;2024-02-23T03:50:20;4.90;99.90
54126;DHT22;40360;52.992;6.796;2024-02-23T03:52:46;4.90;99.90
54126;DHT22;40360;52.992;6.796;2024-02-23T03:55:12;4.90;99.90
54126;DHT22;40360;52.992;6.796;2024-02-23T03:57:37;4.90;99.90
54126;DHT22;40360;52.992;6.796;2024-02-23T04:00:04;4.90;99.90
54126;DHT22;40360;52.992;6.796;2024-02-23T04:02:29;4.90;99.90
54126;DHT22;40360;52.992;6.796;2024-02-23T04:04:55;4.90;99.90
54126;DHT22;40360;52.992;6.796;2024-02-23T04:07:21;4.90;99.90
54126;DHT22;40360;52.992;6.796;2024-02-23T04:09:47;5.10;99.90
54126;DHT22;40360;52.992;6.796;2024-02-23T04:12:18;4.90;99.90
54126;DHT22;40360;52.992;6.796;2024-02-23T04:14:45;5.00;99.90
54126;DHT22;40360;52.992;6.796;2024-02-23T04:17:11;5.00;99.90
54126;DHT22;40360;52.992;6.796;2024-02-23T04:19:37;5.00;99.90
54126;DHT22;40360;52.992;6.796;2024-02-23T04:22:05;4.90;99.90
54126;DHT22;40360;52.992;6.796;2024-02-23T04:24:31;4.90;99.90
54126;DHT22;40360;52.992;6.796;2024-02-23T04:26:57;4.90;99.90
54126;DHT22;40360;52.992;6.796;2024-02-23T04:29:22;4.90;99.90
54126;DHT22;40360;52.992;6.796;2024-02-23T04:31:48;4.90;99.90
54126;DHT22;40360;52.992;6.796;2024-02-23T04:34:15;4.90;99.90
54126;DHT22;40360;52.992;6.796;2024-02-23T04:36:41;4.90;99.90
54126;DHT22;40360;52.992;6.796;2024-02-23T04:39:08;4.80;99.90
54126;DHT22;40360;52.992;6.796;2024-02-23T04:41:33;4.80;99.90
54126;DHT22;40360;52.992;6.796;2024-02-23T04:43:59;4.80;99.90
54126;DHT22;40360;52.992;6.796;2024-02-23T04:46:26;4.80;99.90
54126;DHT22;40360;52.992;6.796;2024-02-23T04:48:52;4.80;99.90
54126;DHT22;40360;52.992;6.796;2024-02-23T04:51:18;4.80;99.90
54126;DHT22;40360;52.992;6.796;2024-02-23T04:53:44;4.80;99.90
54126;DHT22;40360;52.992;6.796;2024-02-23T04:56:10;4.80;99.90
54126;DHT22;40360;52.992;6.796;2024-02-23T04:58:35;4.80;99.90
54126;DHT22;40360;52.992;6.796;2024-02-23T05:01:03;4.70;99.90
54126;DHT22;40360;52.992;6.796;2024-02-23T05:03:29;4.70;99.90
54126;DHT22;40360;52.992;6.796;2024-02-23T05:05:56;4.50;99.90
54126;DHT22;40360;52.992;6.796;2024-02-23T05:08:21;4.80;99.90
54126;DHT22;40360;52.992;6.796;2024-02-23T05:10:50;4.70;99.90
54126;DHT22;40360;52.992;6.796;2024-02-23T05:13:16;4.80;99.90
54126;DHT22;40360;52.992;6.796;2024-02-23T05:15:42;4.80;99.90
54126;DHT22;40360;52.992;6.796;2024-02-23T05:18:07;4.90;99.90
54126;DHT22;40360;52.992;6.796;2024-02-23T05:20:33;4.80;99.90
54126;DHT22;40360;52.992;6.796;2024-02-23T05:22:59;4.80;99.90
54126;DHT22;40360;52.992;6.796;2024-02-23T05:25:24;4.80;99.90
54126;DHT22;40360;52.992;6.796;2024-02-23T05:27:51;4.80;99.90
54126;DHT22;40360;52.992;6.796;2024-02-23T05:30:17;4.70;99.90
54126;DHT22;40360;52.992;6.796;2024-02-23T05:32:42;4.70;99.90
54126;DHT22;40360;52.992;6.796;2024-02-23T05:35:09;4.70;99.90
54126;DHT22;40360;52.992;6.796;2024-02-23T05:37:35;4.70;99.90
54126;DHT22;40360;52.992;6.796;2024-02-23T05:40:01;4.80;99.90
54126;DHT22;40360;52.992;6.796;2024-02-23T05:42:29;4.90;99.90
54126;DHT22;40360;52.992;6.796;2024-02-23T05:44:55;4.90;99.90
54126;DHT22;40360;52.992;6.796;2024-02-23T05:47:21;4.90;99.90
54126;DHT22;40360;52.992;6.796;2024-02-23T05:49:47;4.90;99.90
54126;DHT22;40360;52.992;6.796;2024-02-23T05:52:13;4.90;99.90
54126;DHT22;40360;52.992;6.796;2024-02-23T05:54:38;4.90;99.90
54126;DHT22;40360;52.992;6.796;2024-02-23T05:57:04;4.90;99.90
54126;DHT22;40360;52.992;6.796;2024-02-23T05:59:30;4.90;99.90
54126;DHT22;40360;52.992;6.796;2024-02-23T06:01:56;4.90;99.90
54126;DHT22;40360;52.992;6.796;2024-02-23T06:04:24;5.00;99.90
54126;DHT22;40360;52.992;6.796;2024-02-23T06:06:50;4.90;99.90
54126;DHT22;40360;52.992;6.796;2024-02-23T06:09:16;5.00;99.90
54126;DHT22;40360;52.992;6.796;2024-02-23T06:11:42;5.00;99.90
54126;DHT22;40360;52.992;6.796;2024-02-23T06:14:08;4.90;99.90
54126;DHT22;40360;52.992;6.796;2024-02-23T06:16:34;4.90;99.90
54126;DHT22;40360;52.992;6.796;2024-02-23T06:19:00;4.80;99.90
54126;DHT22;40360;52.992;6.796;2024-02-23T06:21:26;4.80;99.90
54126;DHT22;40360;52.992;6.796;2024-02-23T06:23:52;4.80;99.90
54126;DHT22;40360;52.992;6.796;2024-02-23T06:26:18;4.80;99.90
54126;DHT22;40360;52.992;6.796;2024-02-23T06:28:43;4.90;99.90
54126;DHT22;40360;52.992;6.796;2024-02-23T06:31:10;4.90;99.90
54126;DHT22;40360;52.992;6.796;2024-02-23T06:33:35;4.80;99.90
54126;DHT22;40360;52.992;6.796;2024-02-23T06:36:01;4.80;99.90
54126;DHT22;40360;52.992;6.796;2024-02-23T06:38:28;4.80;99.90
54126;DHT22;40360;52.992;6.796;2024-02-23T06:40:54;4.80;99.90
54126;DHT22;40360;52.992;6.796;2024-02-23T06:43:21;4.80;99.90
54126;DHT22;40360;52.992;6.796;2024-02-23T06:45:47;4.70;99.90
54126;DHT22;40360;52.992;6.796;2024-02-23T06:48:13;4.70;99.90
54126;DHT22;40360;52.992;6.796;2024-02-23T06:50:38;4.80;99.90
54126;DHT22;40360;52.992;6.796;2024-02-23T06:53:04;4.80;99.90
54126;DHT22;40360;52.992;6.796;2024-02-23T06:55:35;4.90;99.90
54126;DHT22;40360;52.992;6.796;2024-02-23T06:58:01;4.90;99.90
54126;DHT22;40360;52.992;6.796;2024-02-23T07:00:27;4.90;99.90
54126;DHT22;40360;52.992;6.796;2024-02-23T07:02:53;4.90;99.90
54126;DHT22;40360;52.992;6.796;2024-02-23T07:05:19;4.90;99.90
54126;DHT22;40360;52.992;6.796;2024-02-23T07:07:45;4.90;99.90
54126;DHT22;40360;52.992;6.796;2024-02-23T07:10:11;4.90;99.90
54126;DHT22;40360;52.992;6.796;2024-02-23T07:12:37;4.90;99.90
54126;DHT22;40360;52.992;6.796;2024-02-23T07:15:03;5.00;99.90
54126;DHT22;40360;52.992;6.796;2024-02-23T07:17:29;5.00;99.90
54126;DHT22;40360;52.992;6.796;2024-02-23T07:19:55;5.00;99.90
54126;DHT22;40360;52.992;6.796;2024-02-23T07:22:28;5.00;99.90
54126;DHT22;40360;52.992;6.796;2024-02-23T07:24:53;5.00;99.90
54126;DHT22;40360;52.992;6.796;2024-02-23T07:27:19;4.90;99.90
54126;DHT22;40360;52.992;6.796;2024-02-23T07:29:45;5.00;99.90
54126;DHT22;40360;52.992;6.796;2024-02-23T07:32:11;5.00;99.90
54126;DHT22;40360;52.992;6.796;2024-02-23T07:34:36;5.00;99.90
54126;DHT22;40360;52.992;6.796;2024-02-23T07:37:02;5.00;99.90
54126;DHT22;40360;52.992;6.796;2024-02-23T07:39:29;5.10;99.90
54126;DHT22;40360;52.992;6.796;2024-02-23T07:41:55;5.10;99.90
54126;DHT22;40360;52.992;6.796;2024-02-23T07:44:23;5.10;99.90
54126;DHT22;40360;52.992;6.796;2024-02-23T07:46:53;5.20;99.90
54126;DHT22;40360;52.992;6.796;2024-02-23T07:49:21;5.20;99.90
54126;DHT22;40360;52.992;6.796;2024-02-23T07:51:47;5.30;99.90
54126;DHT22;40360;52.992;6.796;2024-02-23T07:54:13;5.30;99.90
54126;DHT22;40360;52.992;6.796;2024-02-23T07:56:39;5.30;99.90
54126;DHT22;40360;52.992;6.796;2024-02-23T07:59:04;5.40;99.90
54126;DHT22;40360;52.992;6.796;2024-02-23T08:01:30;5.40;99.90
54126;DHT22;40360;52.992;6.796;2024-02-23T08:03:57;5.40;99.90
54126;DHT22;40360;52.992;6.796;2024-02-23T08:06:22;5.50;99.90
54126;DHT22;40360;52.992;6.796;2024-02-23T08:08:48;5.50;99.90
54126;DHT22;40360;52.992;6.796;2024-02-23T08:11:14;5.50;99.90
54126;DHT22;40360;52.992;6.796;2024-02-23T08:13:40;5.60;99.90
54126;DHT22;40360;52.992;6.796;2024-02-23T08:16:06;5.60;99.90
54126;DHT22;40360;52.992;6.796;2024-02-23T08:18:32;5.60;99.90
54126;DHT22;40360;52.992;6.796;2024-02-23T08:20:58;5.60;99.90
54126;DHT22;40360;52.992;6.796;2024-02-23T08:23:24;5.60;99.90
54126;DHT22;40360;52.992;6.796;2024-02-23T08:25:50;5.60;99.90
54126;DHT22;40360;52.992;6.796;2024-02-23T08:28:16;5.70;99.90
54126;DHT22;40360;52.992;6.796;2024-02-23T08:30:42;5.70;99.90
54126;DHT22;40360;52.992;6.796;2024-02-23T08:33:08;5.70;99.90
54126;DHT22;40360;52.992;6.796;2024-02-23T08:35:36;5.80;99.90
54126;DHT22;40360;52.992;6.796;2024-02-23T08:38:02;5.80;99.90
54126;DHT22;40360;52.992;6.796;2024-02-23T08:40:27;5.90;99.90
54126;DHT22;40360;52.992;6.796;2024-02-23T08:42:53;5.90;99.90
54126;DHT22;40360;52.992;6.796;2024-02-23T09:02:58;6.10;99.90
54126;DHT22;40360;52.992;6.796;2024-02-23T09:05:30;6.20;99.90
54126;DHT22;40360;52.992;6.796;2024-02-23T09:07:56;6.30;99.90
54126;DHT22;40360;52.992;6.796;2024-02-23T09:10:22;6.40;99.90
54126;DHT22;40360;52.992;6.796;2024-02-23T09:12:47;6.00;99.90
54126;DHT22;40360;52.992;6.796;2024-02-23T09:15:13;6.60;99.90
54126;DHT22;40360;52.992;6.796;2024-02-23T09:17:40;6.60;99.90
54126;DHT22;40360;52.992;6.796;2024-02-23T09:20:07;6.90;99.90
54126;DHT22;40360;52.992;6.796;2024-02-23T09:22:33;6.80;99.90
54126;DHT22;40360;52.992;6.796;2024-02-23T09:24:59;6.80;99.90
54126;DHT22;40360;52.992;6.796;2024-02-23T09:27:25;6.90;99.90
54126;DHT22;40360;52.992;6.796;2024-02-23T09:29:51;7.00;99.90
54126;DHT22;40360;52.992;6.796;2024-02-23T09:32:17;7.10;99.90
54126;DHT22;40360;52.992;6.796;2024-02-23T09:34:42;7.20;99.90
54126;DHT22;40360;52.992;6.796;2024-02-23T09:37:09;7.40;99.90
54126;DHT22;40360;52.992;6.796;2024-02-23T09:39:35;7.30;99.90
54126;DHT22;40360;52.992;6.796;2024-02-23T09:42:01;7.30;99.90
54126;DHT22;40360;52.992;6.796;2024-02-23T09:44:34;7.30;99.90
54126;DHT22;40360;52.992;6.796;2024-02-23T09:47:02;7.30;99.90
54126;DHT22;40360;52.992;6.796;2024-02-23T09:49:39;7.20;99.90
54126;DHT22;40360;52.992;6.796;2024-02-23T09:52:08;7.20;99.90
54126;DHT22;40360;52.992;6.796;2024-02-23T09:54:36;7.10;99.90
54126;DHT22;40360;52.992;6.796;2024-02-23T09:57:07;7.10;99.90
54126;DHT22;40360;52.992;6.796;2024-02-23T09:59:34;7.00;99.90
54126;DHT22;40360;52.992;6.796;2024-02-23T10:02:01;7.20;99.90
54126;DHT22;40360;52.992;6.796;2024-02-23T10:04:29;7.10;99.90
54126;DHT22;40360;52.992;6.796;2024-02-23T10:06:56;7.00;99.90
54126;DHT22;40360;52.992;6.796;2024-02-23T10:09:22;7.20;99.90
54126;DHT22;40360;52.992;6.796;2024-02-23T10:11:54;7.20;99.90
54126;DHT22;40360;52.992;6.796;2024-02-23T10:14:20;7.20;99.90
54126;DHT22;40360;52.992;6.796;2024-02-23T10:16:46;7.10;99.90
54126;DHT22;40360;52.992;6.796;2024-02-23T10:19:12;7.30;99.90
54126;DHT22;40360;52.992;6.796;2024-02-23T10:21:38;7.30;99.90
54126;DHT22;40360;52.992;6.796;2024-02-23T10:24:05;7.20;99.90
54126;DHT22;40360;52.992;6.796;2024-02-23T10:26:31;7.20;99.90
54126;DHT22;40360;52.992;6.796;2024-02-23T10:28:57;7.20;99.90
54126;DHT22;40360;52.992;6.796;2024-02-23T10:31:24;7.20;99.90
54126;DHT22;40360;52.992;6.796;2024-02-23T10:33:50;7.30;99.90
54126;DHT22;40360;52.992;6.796;2024-02-23T10:36:18;7.20;99.90
54126;DHT22;40360;52.992;6.796;2024-02-23T10:38:45;7.30;99.90
54126;DHT22;40360;52.992;6.796;2024-02-23T10:41:13;7.20;99.90
54126;DHT22;40360;52.992;6.796;2024-02-23T10:43:48;7.20;99.90
54126;DHT22;40360;52.992;6.796;2024-02-23T10:46:18;7.20;99.90
54126;DHT22;40360;52.992;6.796;2024-02-23T10:48:45;7.30;99.90
54126;DHT22;40360;52.992;6.796;2024-02-23T10:51:13;7.20;99.90
54126;DHT22;40360;52.992;6.796;2024-02-23T10:53:44;7.10;99.90
54126;DHT22;40360;52.992;6.796;2024-02-23T10:56:11;7.20;99.90
54126;DHT22;40360;52.992;6.796;2024-02-23T10:58:37;7.50;99.90
54126;DHT22;40360;52.992;6.796;2024-02-23T11:01:07;7.20;99.90
54126;DHT22;40360;52.992;6.796;2024-02-23T11:03:36;7.20;99.90
54126;DHT22;40360;52.992;6.796;2024-02-23T11:06:06;7.20;99.90
54126;DHT22;40360;52.992;6.796;2024-02-23T11:08:35;7.10;99.90
54126;DHT22;40360;52.992;6.796;2024-02-23T11:11:09;7.20;99.90
54126;DHT22;40360;52.992;6.796;2024-02-23T11:13:35;7.20;99.90
54126;DHT22;40360;52.992;6.796;2024-02-23T11:16:06;7.20;99.90
54126;DHT22;40360;52.992;6.796;2024-02-23T11:18:33;7.20;99.90
54126;DHT22;40360;52.992;6.796;2024-02-23T11:21:01;7.20;99.90
54126;DHT22;40360;52.992;6.796;2024-02-23T11:26:10;7.20;99.90
54126;DHT22;40360;52.992;6.796;2024-02-23T11:28:53;7.20;99.90
54126;DHT22;40360;52.992;6.796;2024-02-23T11:31:29;7.20;99.90
54126;DHT22;40360;52.992;6.796;2024-02-23T11:33:55;7.20;99.90
54126;DHT22;40360;52.992;6.796;2024-02-23T11:36:28;7.30;99.90
54126;DHT22;40360;52.992;6.796;2024-02-23T11:38:54;7.10;99.90
54126;DHT22;40360;52.992;6.796;2024-02-23T11:41:22;7.20;99.90
54126;DHT22;40360;52.992;6.796;2024-02-23T11:43:52;7.50;99.90
54126;DHT22;40360;52.992;6.796;2024-02-23T11:46:18;7.30;99.90
54126;DHT22;40360;52.992;6.796;2024-02-23T11:48:44;7.40;99.90
54126;DHT22;40360;52.992;6.796;2024-02-23T11:51:13;7.30;99.90
54126;DHT22;40360;52.992;6.796;2024-02-23T11:53:39;7.30;99.90
54126;DHT22;40360;52.992;6.796;2024-02-23T11:56:05;7.20;99.90
54126;DHT22;40360;52.992;6.796;2024-02-23T11:58:34;7.00;99.90
54126;DHT22;40360;52.992;6.796;2024-02-23T12:01:03;6.90;99.90
54126;DHT22;40360;52.992;6.796;2024-02-23T12:03:29;7.00;99.90
54126;DHT22;40360;52.992;6.796;2024-02-23T12:05:59;6.90;99.90
54126;DHT22;40360;52.992;6.796;2024-02-23T12:08:30;6.90;99.90
54126;DHT22;40360;52.992;6.796;2024-02-23T12:10:57;7.10;99.90
54126;DHT22;40360;52.992;6.796;2024-02-23T12:13:26;6.90;99.90
54126;DHT22;40360;52.992;6.796;2024-02-23T12:15:55;6.80;99.90
54126;DHT22;40360;52.992;6.796;2024-02-23T12:18:24;6.90;99.90
54126;DHT22;40360;52.992;6.796;2024-02-23T12:20:53;6.80;99.90
54126;DHT22;40360;52.992;6.796;2024-02-23T12:23:19;6.90;99.90
54126;DHT22;40360;52.992;6.796;2024-02-23T12:25:56;6.90;99.90
54126;DHT22;40360;52.992;6.796;2024-02-23T12:28:23;6.90;99.90
54126;DHT22;40360;52.992;6.796;2024-02-23T12:31:02;6.90;99.90
54126;DHT22;40360;52.992;6.796;2024-02-23T12:33:32;6.90;99.90
54126;DHT22;40360;52.992;6.796;2024-02-23T12:35:58;6.90;99.90
54126;DHT22;40360;52.992;6.796;2024-02-23T12:38:25;6.90;99.90
54126;DHT22;40360;52.992;6.796;2024-02-23T12:40:51;6.90;99.90
54126;DHT22;40360;52.992;6.796;2024-02-23T12:43:18;6.90;99.90
54126;DHT22;40360;52.992;6.796;2024-02-23T12:45:53;6.90;99.90
54126;DHT22;40360;52.992;6.796;2024-02-23T12:48:20;6.90;99.90
54126;DHT22;40360;52.992;6.796;2024-02-23T12:50:46;7.00;99.90
54126;DHT22;40360;52.992;6.796;2024-02-23T12:53:40;6.90;99.90
54126;DHT22;40360;52.992;6.796;2024-02-23T12:56:11;6.90;99.90
54126;DHT22;40360;52.992;6.796;2024-02-23T12:58:41;6.80;99.90
54126;DHT22;40360;52.992;6.796;2024-02-23T13:01:07;6.80;99.90
54126;DHT22;40360;52.992;6.796;2024-02-23T13:03:34;6.80;99.90
54126;DHT22;40360;52.992;6.796;2024-02-23T13:06:00;6.90;99.90
54126;DHT22;40360;52.992;6.796;2024-02-23T13:08:26;6.90;99.90
54126;DHT22;40360;52.992;6.796;2024-02-23T13:10:53;6.70;99.90
54126;DHT22;40360;52.992;6.796;2024-02-23T13:13:19;6.80;99.90
54126;DHT22;40360;52.992;6.796;2024-02-23T13:15:46;6.80;99.90
54126;DHT22;40360;52.992;6.796;2024-02-23T13:18:12;7.00;99.90
54126;DHT22;40360;52.992;6.796;2024-02-23T13:20:38;6.70;99.90
54126;DHT22;40360;52.992;6.796;2024-02-23T13:23:04;6.80;99.90
54126;DHT22;40360;52.992;6.796;2024-02-23T13:25:32;6.80;99.90
54126;DHT22;40360;52.992;6.796;2024-02-23T13:27:57;6.80;99.90
54126;DHT22;40360;52.992;6.796;2024-02-23T13:30:23;7.10;99.90
54126;DHT22;40360;52.992;6.796;2024-02-23T13:32:49;6.90;99.90
54126;DHT22;40360;52.992;6.796;2024-02-23T13:35:15;7.00;99.90
54126;DHT22;40360;52.992;6.796;2024-02-23T13:37:42;6.80;99.90
54126;DHT22;40360;52.992;6.796;2024-02-23T13:40:09;7.00;99.90
54126;DHT22;40360;52.992;6.796;2024-02-23T13:42:35;7.00;99.90
54126;DHT22;40360;52.992;6.796;2024-02-23T13:45:04;7.00;99.90
54126;DHT22;40360;52.992;6.796;2024-02-23T13:47:30;7.00;99.90
54126;DHT22;40360;52.992;6.796;2024-02-23T13:49:55;7.10;99.90
54126;DHT22;40360;52.992;6.796;2024-02-23T13:52:21;7.40;99.90
54126;DHT22;40360;52.992;6.796;2024-02-23T13:54:47;7.30;99.90
54126;DHT22;40360;52.992;6.796;2024-02-23T13:57:12;7.20;99.90
54126;DHT22;40360;52.992;6.796;2024-02-23T13:59:38;7.50;99.90
54126;DHT22;40360;52.992;6.796;2024-02-23T14:02:04;7.20;99.90
54126;DHT22;40360;52.992;6.796;2024-02-23T14:04:29;7.20;99.90
54126;DHT22;40360;52.992;6.796;2024-02-23T14:06:56;7.30;99.90
54126;DHT22;40360;52.992;6.796;2024-02-23T14:09:21;7.20;99.90
54126;DHT22;40360;52.992;6.796;2024-02-23T14:11:47;7.30;99.90
54126;DHT22;40360;52.992;6.796;2024-02-23T14:14:13;7.30;99.90
54126;DHT22;40360;52.992;6.796;2024-02-23T14:16:40;7.20;99.90
54126;DHT22;40360;52.992;6.796;2024-02-23T14:19:06;7.20;99.90
54126;DHT22;40360;52.992;6.796;2024-02-23T14:21:32;7.20;99.90
54126;DHT22;40360;52.992;6.796;2024-02-23T14:23:57;7.20;99.90
54126;DHT22;40360;52.992;6.796;2024-02-23T14:26:23;7.20;99.90
54126;DHT22;40360;52.992;6.796;2024-02-23T14:28:49;7.30;99.90
54126;DHT22;40360;52.992;6.796;2024-02-23T14:31:15;7.30;99.90
54126;DHT22;40360;52.992;6.796;2024-02-23T14:33:41;7.30;99.90
54126;DHT22;40360;52.992;6.796;2024-02-23T14:36:07;7.30;99.90
54126;DHT22;40360;52.992;6.796;2024-02-23T14:38:33;7.30;99.90
54126;DHT22;40360;52.992;6.796;2024-02-23T14:41:00;7.30;99.90
54126;DHT22;40360;52.992;6.796;2024-02-23T14:43:25;7.30;99.90
54126;DHT22;40360;52.992;6.796;2024-02-23T14:45:51;7.30;99.90
54126;DHT22;40360;52.992;6.796;2024-02-23T14:48:18;7.40;99.90
54126;DHT22;40360;52.992;6.796;2024-02-23T14:50:44;7.40;99.90
54126;DHT22;40360;52.992;6.796;2024-02-23T14:53:11;7.60;99.90
54126;DHT22;40360;52.992;6.796;2024-02-23T14:55:37;7.50;99.90
54126;DHT22;40360;52.992;6.796;2024-02-23T14:58:03;7.40;99.90
54126;DHT22;40360;52.992;6.796;2024-02-23T15:00:29;7.40;99.90
54126;DHT22;40360;52.992;6.796;2024-02-23T15:02:56;7.50;99.90
54126;DHT22;40360;52.992;6.796;2024-02-23T15:05:22;7.60;99.90
54126;DHT22;40360;52.992;6.796;2024-02-23T15:07:48;7.60;99.90
54126;DHT22;40360;52.992;6.796;2024-02-23T15:10:14;7.60;99.90
54126;DHT22;40360;52.992;6.796;2024-02-23T15:12:40;7.60;99.90
54126;DHT22;40360;52.992;6.796;2024-02-23T15:15:06;7.70;99.90
54126;DHT22;40360;52.992;6.796;2024-02-23T15:17:32;7.60;99.90
54126;DHT22;40360;52.992;6.796;2024-02-23T15:19:58;7.80;99.90
54126;DHT22;40360;52.992;6.796;2024-02-23T15:22:24;7.70;99.90
54126;DHT22;40360;52.992;6.796;2024-02-23T15:24:51;7.60;99.90
54126;DHT22;40360;52.992;6.796;2024-02-23T15:27:18;7.60;99.90
54126;DHT22;40360;52.992;6.796;2024-02-23T15:29:44;7.80;99.90
54126;DHT22;40360;52.992;6.796;2024-02-23T15:32:10;7.50;99.90
54126;DHT22;40360;52.992;6.796;2024-02-23T15:34:39;7.80;99.90
54126;DHT22;40360;52.992;6.796;2024-02-23T15:37:05;7.40;99.90
54126;DHT22;40360;52.992;6.796;2024-02-23T15:39:31;7.50;99.90
54126;DHT22;40360;52.992;6.796;2024-02-23T15:41:57;7.40;99.90
54126;DHT22;40360;52.992;6.796;2024-02-23T15:44:23;7.40;99.90
54126;DHT22;40360;52.992;6.796;2024-02-23T15:46:49;7.40;99.90
54126;DHT22;40360;52.992;6.796;2024-02-23T15:49:15;7.50;99.90
54126;DHT22;40360;52.992;6.796;2024-02-23T15:51:44;7.40;99.90
54126;DHT22;40360;52.992;6.796;2024-02-23T15:54:09;7.70;99.90
54126;DHT22;40360;52.992;6.796;2024-02-23T15:56:35;7.40;99.90
54126;DHT22;40360;52.992;6.796;2024-02-23T15:59:01;7.60;99.90
54126;DHT22;40360;52.992;6.796;2024-02-23T16:01:35;7.40;99.90